Oelwein, IA

10:57 PM CDT on September 01, 2014 (GMT -0500)
Maplewood Dr | Change Station
CLOSE
Current Station
Personal Weather Station
Location: Oelwein, IA
Elevation: 1135 ft
Nearby Weather Stations

Elev 1135 ft 42.69 °N, 91.91 °W | Updated 0 second ago

Clear
Clear
68.6 °F
Feels Like 68.6 °F
N
0.0
Wind Variable Wind from WNW
Gusts 0.0 mph

Today
High -- | Low -- °F
--% Chance of Precip.
Yesterday
High -- | Low -- °F
Precip. -- in
6:32 AM 7:41 PM
Waxing Crescent, 47% visible
Pressure 29.86 in
Visibility 10.0 miles
Clouds Clear
Dew Point 63 °F
Humidity 81%
Rainfall 0.54 in
Snow Depth Not available.
UV 0 out of 12
Pollen 2.80 out of 12
Air Quality Not available.
Flu Activity Not available.
METAR KOLZ 020335Z AUTO 28004KT 10SM CLR 18/17 A2986 RMK AO2

More Conditions Fewer Conditions

Pressure 29.86 in
Visibility 10.0 miles
Clouds Clear
Dew Point 63 °F
Humidity 81%
Rainfall 0.54 in
Snow Depth Not available.
UV 0 out of 12
Pollen 2.80 out of 12
Air Quality Not available.
Flu Activity Not available.
METAR KOLZ 020335Z AUTO 28004KT 10SM CLR 18/17 A2986 RMK AO2

More Conditions Fewer Conditions

10-Day Weather Forecast

Almanac

Astronomy

Sep. 01, 2014 Rise Set
Actual Time 6:32 AM CDT 7:41 PM CDT
Civil Twilight 6:03 AM CDT 8:10 PM CDT
Nautical Twilight 5:28 AM CDT 8:45 PM CDT
Astronomical Twilight 4:52 AM CDT 9:21 PM CDT
Moon 1:27 PM CDT (9/1) 11:34 PM CDT (9/1)
Length of Visible Light 14h 07m
Length of Day
13h 09m
Tomorrow will be 2m 47s shorter.
Waxing Crescent, 47% of the Moon is Illuminated
Today
Waxing Crescent
Sep 2
First Quarter
Sep 8
Full
Sep 15
Last Quarter
Sep 24
New

Today's Extremes

State Highs State Lows

Community

WunderPhotos

Upload Photos

1,749,557 photos uploaded!

WunderBlogs® & News

Nearby

Snow Depth

Station Depth Elevation
No new snow has been reported.

Earthquake Activity

City Distance Mag. Time & Date
No recent earthquake activity has been reported nearby.
Minimum magnitude displayed is 2.5.

Coastal Water Temperatures

Place Temperature
No Stations Reporting

Nearby Weather Stations